createdAt,value
2018-04-13T00:00:31.712Z,36.07
2018-04-13T00:03:00.551Z,33.20
2018-04-13T00:05:29.397Z,38.93
2018-04-13T00:07:58.262Z,36.03
2018-04-13T00:10:27.856Z,35.23
2018-04-13T00:12:56.730Z,34.20
2018-04-13T00:15:25.580Z,34.50
2018-04-13T00:17:54.426Z,31.43
2018-04-13T00:20:24.548Z,34.50
2018-04-13T00:22:54.162Z,31.77
2018-04-13T00:25:23.792Z,34.23
2018-04-13T00:27:52.650Z,33.70
2018-04-13T00:30:22.269Z,38.53
2018-04-13T00:32:51.137Z,33.63
2018-04-13T00:35:19.964Z,38.30
2018-04-13T00:37:48.814Z,35.33
2018-04-13T00:40:17.644Z,37.60
2018-04-13T00:42:47.257Z,37.47
2018-04-13T00:45:16.092Z,41.37
2018-04-13T00:47:44.956Z,32.67
2018-04-13T00:50:13.788Z,31.60
2018-04-13T00:52:43.573Z,34.67
2018-04-13T00:55:12.398Z,35.80
2018-04-13T00:57:41.246Z,33.80
2018-04-13T01:00:10.097Z,37.60
2018-04-13T01:02:39.705Z,34.30
2018-04-13T01:05:09.321Z,36.07
2018-04-13T01:07:38.948Z,32.77
2018-04-13T01:10:07.780Z,37.80
2018-04-13T01:12:36.632Z,39.53
2018-04-13T01:15:05.472Z,33.00
2018-04-13T01:17:35.108Z,38.17
2018-04-13T01:20:03.940Z,38.17
2018-04-13T01:22:32.911Z,40.77
2018-04-13T01:25:01.851Z,36.37
2018-04-13T01:27:30.680Z,33.63
2018-04-13T01:29:59.533Z,38.30
2018-04-13T01:32:29.142Z,36.30
2018-04-13T01:34:58.756Z,36.40
2018-04-13T01:37:28.371Z,34.23
2018-04-13T01:39:57.449Z,34.00
2018-04-13T01:42:26.329Z,37.47
2018-04-13T01:44:55.176Z,37.43
2018-04-13T01:47:24.779Z,37.10
2018-04-13T01:49:53.642Z,33.87
2018-04-13T01:52:22.467Z,39.47
2018-04-13T01:54:51.328Z,33.30
2018-04-13T01:57:20.165Z,34.53
2018-04-13T01:59:49.033Z,32.27
2018-04-13T02:02:17.865Z,30.27
2018-04-13T02:04:46.717Z,35.90
2018-04-13T02:07:16.323Z,39.40
2018-04-13T02:09:45.935Z,32.67
2018-04-13T02:12:15.544Z,35.10
2018-04-13T02:14:45.156Z,32.77
2018-04-13T02:17:14.776Z,40.33
2018-04-13T02:19:44.393Z,35.43
2018-04-13T02:22:13.750Z,43.73
2018-04-13T02:24:42.618Z,37.97
2018-04-13T02:27:11.440Z,38.10
2018-04-13T02:29:41.060Z,40.37
2018-04-13T02:32:10.692Z,37.80
2018-04-13T02:34:39.548Z,38.40
2018-04-13T02:37:08.472Z,35.30
2018-04-13T02:39:37.363Z,34.73
2018-04-13T02:42:06.234Z,31.47
2018-04-13T02:44:35.084Z,34.77
2018-04-13T02:47:03.935Z,31.13
2018-04-13T02:49:33.540Z,29.73
2018-04-13T02:52:03.156Z,32.13
2018-04-13T02:54:32.766Z,34.97
2018-04-13T02:57:02.397Z,34.90
2018-04-13T02:59:31.851Z,32.60
2018-04-13T03:02:01.468Z,37.70
2018-04-13T03:04:30.298Z,33.20
2018-04-13T03:06:59.152Z,36.23
2018-04-13T03:09:28.033Z,39.60
2018-04-13T03:11:56.902Z,39.17
2018-04-13T03:14:25.748Z,34.83
2018-04-13T03:16:54.596Z,33.60
2018-04-13T03:19:23.439Z,38.50
2018-04-13T03:21:52.321Z,38.90
2018-04-13T03:24:21.194Z,33.27
2018-04-13T03:26:50.799Z,36.73
2018-04-13T03:29:20.408Z,31.53
2018-04-13T03:31:50.038Z,35.87
2018-04-13T03:34:18.882Z,34.33
2018-04-13T03:36:48.485Z,35.97
2018-04-13T03:39:17.334Z,37.20
2018-04-13T03:41:46.167Z,35.93
2018-04-13T03:44:16.286Z,37.60
2018-04-13T03:46:45.910Z,45.40
2018-04-13T03:49:14.761Z,37.63
2018-04-13T03:51:44.584Z,39.40
2018-04-13T03:54:14.639Z,48.40
2018-04-13T03:56:43.483Z,37.50
2018-04-13T03:59:12.372Z,36.50
2018-04-13T04:01:41.210Z,41.00
2018-04-13T04:04:10.044Z,37.43
2018-04-13T04:06:38.900Z,34.30
2018-04-13T04:09:07.772Z,41.03
2018-04-13T04:11:36.616Z,36.90
2018-04-13T04:14:05.465Z,38.73
2018-04-13T04:16:34.317Z,41.43
2018-04-13T04:19:03.952Z,49.30
2018-04-13T04:21:44.562Z,45.83
2018-04-13T04:24:25.854Z,45.63
2018-04-13T04:26:55.376Z,37.87
2018-04-13T04:29:24.989Z,36.70
2018-04-13T04:31:54.613Z,37.40
2018-04-13T04:34:23.493Z,40.53
2018-04-13T04:36:52.386Z,47.00
2018-04-13T04:39:21.305Z,43.60
2018-04-13T04:41:50.210Z,47.62
2018-04-13T04:44:19.061Z,41.90
2018-04-13T04:46:48.693Z,38.50
2018-04-13T04:49:17.529Z,36.00
2018-04-13T04:51:46.384Z,41.53
2018-04-13T04:54:15.212Z,42.63
2018-04-13T04:56:44.060Z,45.73
2018-04-13T04:59:12.897Z,43.10
2018-04-13T05:01:41.753Z,42.80
2018-04-13T05:04:10.597Z,38.20
2018-04-13T05:06:40.749Z,43.83
2018-04-13T05:09:09.593Z,42.10
2018-04-13T05:11:38.453Z,43.00
2018-04-13T05:14:07.285Z,38.80
2018-04-13T05:16:36.906Z,39.50
2018-04-13T05:19:05.732Z,42.47
2018-04-13T05:21:34.594Z,44.97
2018-04-13T05:24:04.763Z,45.10
2018-04-13T05:26:34.524Z,43.30
2018-04-13T05:29:03.364Z,46.57
2018-04-13T05:31:33.717Z,44.50
2018-04-13T05:34:03.325Z,52.17
2018-04-13T05:36:32.930Z,58.27
2018-04-13T05:39:02.556Z,53.57
2018-04-13T05:41:31.585Z,51.40
2018-04-13T05:44:00.443Z,49.97
2018-04-13T05:46:29.273Z,47.80
2018-04-13T05:48:59.621Z,51.30
2018-04-13T05:51:29.224Z,45.73
2018-04-13T05:53:58.868Z,45.83
2018-04-13T05:56:27.700Z,47.90
2018-04-13T05:58:56.545Z,51.90
2018-04-13T06:01:25.392Z,58.03
2018-04-13T06:03:54.991Z,57.73
2018-04-13T06:06:24.927Z,60.73
2018-04-13T06:08:54.534Z,60.40
2018-04-13T06:11:24.565Z,57.83
2018-04-13T06:13:53.412Z,54.90
2018-04-13T06:16:22.262Z,56.90
2018-04-13T06:18:51.127Z,55.47
2018-04-13T06:21:20.724Z,51.53
2018-04-13T06:23:50.329Z,57.43
2018-04-13T06:26:19.944Z,55.00
2018-04-13T06:28:49.298Z,54.50
2018-04-13T06:31:18.585Z,58.30
2018-04-13T06:33:47.452Z,62.03
2018-04-13T06:36:16.304Z,55.13
2018-04-13T06:38:45.911Z,59.57
2018-04-13T06:41:14.781Z,55.63
2018-04-13T06:43:43.685Z,56.40
2018-04-13T06:46:12.494Z,54.73
2018-04-13T06:48:41.393Z,59.43
2018-04-13T06:51:10.185Z,64.77
2018-04-13T06:53:39.657Z,60.37
2018-04-13T06:56:08.476Z,56.40
2018-04-13T06:58:37.335Z,67.97
2018-04-13T07:01:06.961Z,63.77
2018-04-13T07:03:36.332Z,58.30
2018-04-13T07:06:05.947Z,65.17
2018-04-13T07:08:35.587Z,60.43
2018-04-13T07:11:04.409Z,65.53
2018-04-13T07:13:33.256Z,67.73
2018-04-13T07:16:02.108Z,65.87
2018-04-13T07:18:30.962Z,64.43
2018-04-13T07:20:59.810Z,61.20
2018-04-13T07:23:29.412Z,69.20
2018-04-13T07:25:59.020Z,66.40
2018-04-13T07:28:28.651Z,66.67
2018-04-13T07:30:57.484Z,66.53
2018-04-13T07:33:26.353Z,69.83
2018-04-13T07:35:55.252Z,73.73
2018-04-13T07:38:24.101Z,67.97
2018-04-13T07:40:52.956Z,77.83
2018-04-13T07:43:21.820Z,72.37
2018-04-13T07:45:50.662Z,76.80
2018-04-13T07:48:19.516Z,73.07
2018-04-13T07:50:48.373Z,83.60
2018-04-13T07:53:17.224Z,85.27
2018-04-13T07:55:46.100Z,76.37
2018-04-13T07:58:15.000Z,88.60
2018-04-13T08:00:44.615Z,84.43
2018-04-13T08:03:14.458Z,84.70
2018-04-13T08:05:43.313Z,84.23
2018-04-13T08:08:12.944Z,90.43
2018-04-13T08:10:42.556Z,84.43
2018-04-13T08:13:11.397Z,94.27
2018-04-13T08:15:41.767Z,83.50
2018-04-13T08:18:10.609Z,84.73
2018-04-13T08:20:39.468Z,86.27
2018-04-13T08:23:08.333Z,77.50
2018-04-13T08:25:37.188Z,77.03
2018-04-13T08:28:06.797Z,80.20
2018-04-13T08:30:36.411Z,74.83
2018-04-13T08:33:06.014Z,72.27
2018-04-13T08:35:35.754Z,76.00
2018-04-13T08:38:04.539Z,83.27
2018-04-13T08:40:34.132Z,65.20
2018-04-13T08:43:02.998Z,69.30
2018-04-13T08:45:32.628Z,60.13
2018-04-13T08:48:01.463Z,68.70
2018-04-13T08:50:30.318Z,67.83
2018-04-13T08:52:59.917Z,58.83
2018-04-13T08:55:29.550Z,64.20
2018-04-13T08:57:59.168Z,71.40
2018-04-13T09:00:28.033Z,68.47
2018-04-13T09:02:57.686Z,67.90
2018-04-13T09:05:26.554Z,68.93
2018-04-13T09:07:55.430Z,67.30
2018-04-13T09:10:25.014Z,66.87
2018-04-13T09:12:54.018Z,72.47
2018-04-13T09:15:27.578Z,71.47
2018-04-13T09:17:57.279Z,79.17
2018-04-13T09:20:26.126Z,79.83
2018-04-13T09:22:54.992Z,86.20
2018-04-13T09:25:23.826Z,79.60
2018-04-13T09:27:52.710Z,76.70
2018-04-13T09:30:21.547Z,73.97
2018-04-13T09:32:50.388Z,77.17
2018-04-13T09:35:19.597Z,61.37
2018-04-13T09:37:49.185Z,61.90
2018-04-13T09:40:18.033Z,64.73
2018-04-13T09:42:46.865Z,67.53
2018-04-13T09:45:15.733Z,62.77
2018-04-13T09:47:44.605Z,60.03
2018-04-13T09:50:13.464Z,66.17
2018-04-13T09:52:42.323Z,61.83
2018-04-13T09:55:11.162Z,62.40
2018-04-13T09:57:40.035Z,60.63
2018-04-13T10:00:09.647Z,64.10
2018-04-13T10:02:39.268Z,63.97
2018-04-13T10:05:23.522Z,61.33
2018-04-13T10:07:53.427Z,57.70
2018-04-13T10:10:22.256Z,59.50
2018-04-13T10:12:51.116Z,53.90
2018-04-13T10:15:20.001Z,50.40
2018-04-13T10:17:49.602Z,54.67
2018-04-13T10:20:19.232Z,54.47
2018-04-13T10:22:48.078Z,51.53
2018-04-13T10:25:16.952Z,49.40
2018-04-13T10:27:45.804Z,52.23
2018-04-13T10:30:14.645Z,51.70
2018-04-13T10:32:43.485Z,46.87
2018-04-13T10:35:12.356Z,46.17
2018-04-13T10:37:41.204Z,43.97
2018-04-13T10:40:10.060Z,46.90
2018-04-13T10:42:38.934Z,46.23
2018-04-13T10:45:08.513Z,44.47
2018-04-13T10:47:38.144Z,49.13
2018-04-13T10:50:07.434Z,41.87
2018-04-13T10:52:36.281Z,43.93
2018-04-13T10:55:05.946Z,42.03
2018-04-13T10:57:34.789Z,43.13
2018-04-13T11:00:04.402Z,37.67
2018-04-13T11:02:33.398Z,38.47
2018-04-13T11:05:02.993Z,28.70
2018-04-13T11:07:32.609Z,28.87
2018-04-13T11:10:01.446Z,29.50
2018-04-13T11:12:30.291Z,26.27
2018-04-13T11:14:59.247Z,24.40
2018-04-13T11:17:28.062Z,23.53
2018-04-13T11:19:57.682Z,23.40
2018-04-13T11:22:26.537Z,25.83
2018-04-13T11:24:55.438Z,26.53
2018-04-13T11:27:24.269Z,23.73
2018-04-13T11:29:53.109Z,26.40
2018-04-13T11:32:21.969Z,23.50
2018-04-13T11:34:50.810Z,23.67
2018-04-13T11:37:20.433Z,29.57
2018-04-13T11:39:49.280Z,27.73
2018-04-13T11:42:18.120Z,28.13
2018-04-13T11:44:46.993Z,27.20
2018-04-13T11:47:15.824Z,28.80
2018-04-13T11:49:45.445Z,27.20
2018-04-13T11:52:14.302Z,27.17
2018-04-13T11:54:43.932Z,26.35
2018-04-13T11:57:12.792Z,26.87
2018-04-13T11:59:41.632Z,25.70
2018-04-13T12:02:10.491Z,27.83
2018-04-13T12:04:40.105Z,25.50
2018-04-13T12:07:09.710Z,26.40
2018-04-13T12:09:39.342Z,27.10
2018-04-13T12:12:08.192Z,28.00
2018-04-13T12:14:37.823Z,26.77
2018-04-13T12:17:06.681Z,24.87
2018-04-13T12:19:35.543Z,25.47
2018-04-13T12:22:04.386Z,25.23
2018-04-13T12:24:34.014Z,21.93
2018-04-13T12:27:02.861Z,23.43
2018-04-13T12:29:32.973Z,23.40
2018-04-13T12:32:01.809Z,22.67
2018-04-13T12:34:30.670Z,24.47
2018-04-13T12:37:00.305Z,23.80
2018-04-13T12:39:30.459Z,27.80
2018-04-13T12:41:59.294Z,24.50
2018-04-13T12:44:28.914Z,26.77
2018-04-13T12:46:57.790Z,23.67
2018-04-13T12:49:26.734Z,26.60
2018-04-13T12:51:56.405Z,29.50
2018-04-13T12:54:26.690Z,25.47
2018-04-13T12:56:55.516Z,28.93
2018-04-13T12:59:25.108Z,27.27
2018-04-13T13:01:54.743Z,29.17
2018-04-13T13:04:23.608Z,32.63
2018-04-13T13:06:53.662Z,28.83
2018-04-13T13:09:22.500Z,29.40
2018-04-13T13:11:51.375Z,34.13
2018-04-13T13:14:20.225Z,34.57
2018-04-13T13:16:49.085Z,32.80
2018-04-13T13:19:18.688Z,29.07
2018-04-13T13:21:48.328Z,39.20
2018-04-13T13:24:17.188Z,34.43
2018-04-13T13:26:46.805Z,33.50
2018-04-13T13:29:16.437Z,29.37
2018-04-13T13:31:45.290Z,34.23
2018-04-13T13:34:15.663Z,33.57
2018-04-13T13:36:44.552Z,34.13
2018-04-13T13:39:13.405Z,34.47
2018-04-13T13:41:43.027Z,38.20
2018-04-13T13:44:11.921Z,36.27
2018-04-13T13:46:41.512Z,39.20
2018-04-13T13:49:11.141Z,41.77
2018-04-13T13:51:41.163Z,38.30
2018-04-13T13:54:10.353Z,40.50
2018-04-13T13:56:39.965Z,43.50
2018-04-13T13:59:08.834Z,39.10
2018-04-13T14:01:37.691Z,38.30
2018-04-13T14:04:06.582Z,46.67
2018-04-13T14:06:36.136Z,48.13
2018-04-13T14:09:06.705Z,37.93
2018-04-13T14:11:35.552Z,39.13
2018-04-13T14:14:05.194Z,40.07
2018-04-13T14:16:34.005Z,39.80
2018-04-13T14:19:02.875Z,48.10
2018-04-13T14:21:31.744Z,40.53
2018-04-13T14:24:00.610Z,42.80
2018-04-13T14:26:30.097Z,39.53
2018-04-13T14:28:58.940Z,44.63
2018-04-13T14:31:27.811Z,41.33
2018-04-13T14:33:56.671Z,41.20
2018-04-13T14:36:25.541Z,42.27
2018-04-13T14:38:54.407Z,45.87
2018-04-13T14:41:23.276Z,43.07
2018-04-13T14:43:52.864Z,40.27
2018-04-13T14:46:22.507Z,38.33
2018-04-13T14:48:52.118Z,40.63
2018-04-13T14:51:20.983Z,38.90
2018-04-13T14:53:50.602Z,36.67
2018-04-13T14:56:19.459Z,42.70
2018-04-13T14:58:49.065Z,36.30
2018-04-13T15:01:17.923Z,37.70
2018-04-13T15:03:46.774Z,28.60
2018-04-13T15:06:19.022Z,27.37
2018-04-13T15:08:48.630Z,24.80
2018-04-13T15:11:18.253Z,24.23
2018-04-13T15:13:47.865Z,21.17
2018-04-13T15:16:16.714Z,23.20
2018-04-13T15:18:45.560Z,19.00
2018-04-13T15:21:14.409Z,21.77
2018-04-13T15:23:43.284Z,24.13
2018-04-13T15:26:12.132Z,25.40
2018-04-13T15:28:40.976Z,19.60
2018-04-13T15:31:10.593Z,22.43
2018-04-13T15:33:40.226Z,21.37
2018-04-13T15:36:09.725Z,23.67
2018-04-13T15:38:38.616Z,20.13
2018-04-13T15:41:08.121Z,25.10
2018-04-13T15:43:36.999Z,20.20
2018-04-13T15:46:05.873Z,19.60
2018-04-13T15:48:35.479Z,19.47
2018-04-13T15:51:05.116Z,19.60
2018-04-13T15:53:33.951Z,23.13
2018-04-13T15:56:02.829Z,20.93
2018-04-13T15:58:31.678Z,19.47
2018-04-13T16:01:00.522Z,19.93
2018-04-13T16:03:29.352Z,20.97
2018-04-13T16:05:58.262Z,20.43
2018-04-13T16:08:27.108Z,20.43
2018-04-13T16:10:57.509Z,20.10
2018-04-13T16:13:26.589Z,21.13
2018-04-13T16:15:56.100Z,23.87
2018-04-13T16:18:24.953Z,23.47
2018-04-13T16:20:53.835Z,22.13
2018-04-13T16:23:22.655Z,22.73
2018-04-13T16:25:52.698Z,25.53
2018-04-13T16:28:21.554Z,23.20
2018-04-13T16:30:51.182Z,25.20
2018-04-13T16:33:20.109Z,26.43
2018-04-13T16:35:49.697Z,25.47
2018-04-13T16:38:18.582Z,34.17
2018-04-13T16:40:47.423Z,27.30
2018-04-13T16:43:17.905Z,26.20
2018-04-13T16:45:46.793Z,27.73
2018-04-13T16:48:15.633Z,28.30
2018-04-13T16:50:44.462Z,27.67
2018-04-13T16:53:13.332Z,27.50
2018-04-13T16:55:42.186Z,26.77
2018-04-13T16:58:11.814Z,31.90
2018-04-13T17:00:40.710Z,27.30
2018-04-13T17:03:09.548Z,29.30
2018-04-13T17:05:38.388Z,31.20
2018-04-13T17:08:08.160Z,28.40
2018-04-13T17:10:36.978Z,29.10
2018-04-13T17:13:05.820Z,30.47
2018-04-13T17:15:34.664Z,28.07
2018-04-13T17:18:03.584Z,27.47
2018-04-13T17:20:32.445Z,30.33
2018-04-13T17:23:01.280Z,26.60
2018-04-13T17:25:31.672Z,29.13
2018-04-13T17:28:00.529Z,31.67
2018-04-13T17:30:29.391Z,31.53
2018-04-13T17:32:58.238Z,35.53
2018-04-13T17:35:27.097Z,30.73
2018-04-13T17:37:56.712Z,32.57
2018-04-13T17:40:25.587Z,33.10
2018-04-13T17:42:55.185Z,32.53
2018-04-13T17:45:24.718Z,33.77
2018-04-13T17:47:54.328Z,39.73
2018-04-13T17:50:23.185Z,33.50
2018-04-13T17:52:52.141Z,32.70
2018-04-13T17:55:21.247Z,32.23
2018-04-13T17:57:50.104Z,32.43
2018-04-13T18:00:19.739Z,33.00
2018-04-13T18:02:48.611Z,35.23
2018-04-13T18:05:17.485Z,37.70
2018-04-13T18:07:47.109Z,34.97
2018-04-13T18:10:15.975Z,31.23
2018-04-13T18:12:45.593Z,31.27
2018-04-13T18:15:15.243Z,35.17
2018-04-13T18:17:44.096Z,32.83
2018-04-13T18:20:12.957Z,34.17
2018-04-13T18:22:42.651Z,32.17
2018-04-13T18:25:12.347Z,31.73
2018-04-13T18:27:41.194Z,31.23
2018-04-13T18:30:10.064Z,31.57
2018-04-13T18:32:39.701Z,34.07
2018-04-13T18:35:08.548Z,30.73
2018-04-13T18:37:38.814Z,33.10
2018-04-13T18:40:08.317Z,29.43
2018-04-13T18:42:37.192Z,33.87
2018-04-13T18:45:06.374Z,31.70
2018-04-13T18:47:36.031Z,35.33
2018-04-13T18:50:04.857Z,32.70
2018-04-13T18:52:34.428Z,34.50
2018-04-13T18:55:03.282Z,42.03
2018-04-13T18:57:32.154Z,31.80
2018-04-13T19:00:01.648Z,35.73
2018-04-13T19:02:30.492Z,32.63
2018-04-13T19:05:00.277Z,32.77
2018-04-13T19:07:29.912Z,36.13
2018-04-13T19:09:58.767Z,36.73
2018-04-13T19:12:27.641Z,34.73
2018-04-13T19:14:56.510Z,35.30
2018-04-13T19:17:25.345Z,33.40
2018-04-13T19:19:54.214Z,33.30
2018-04-13T19:22:23.832Z,34.07
2018-04-13T19:24:53.479Z,34.30
2018-04-13T19:27:23.147Z,32.47
2018-04-13T19:29:52.779Z,32.47
2018-04-13T19:32:22.057Z,32.37
2018-04-13T19:34:51.704Z,34.00
2018-04-13T19:37:22.695Z,32.50
2018-04-13T19:39:51.562Z,36.87
2018-04-13T19:42:21.170Z,32.13
2018-04-13T19:44:50.901Z,36.23
2018-04-13T19:47:19.745Z,34.13
2018-04-13T19:49:48.630Z,32.80
2018-04-13T19:52:18.194Z,36.70
2018-04-13T19:54:47.067Z,35.97
2018-04-13T19:57:15.929Z,32.03
2018-04-13T19:59:44.777Z,35.03
2018-04-13T20:02:13.669Z,34.80
2018-04-13T20:04:42.554Z,36.03
2018-04-13T20:07:11.434Z,34.07
2018-04-13T20:09:40.269Z,40.20
2018-04-13T20:12:09.128Z,38.17
2018-04-13T20:14:38.001Z,36.83
2018-04-13T20:17:06.887Z,40.37
2018-04-13T20:19:36.502Z,36.70
2018-04-13T20:22:05.397Z,36.40
2018-04-13T20:24:34.261Z,35.30
2018-04-13T20:27:03.896Z,35.80
2018-04-13T20:29:32.741Z,39.63
2018-04-13T20:32:02.376Z,37.10
2018-04-13T20:34:31.236Z,37.27
2018-04-13T20:37:00.864Z,37.17
2018-04-13T20:39:30.513Z,41.33
2018-04-13T20:41:59.373Z,39.27
2018-04-13T20:44:28.260Z,42.60
2018-04-13T20:46:57.862Z,39.57
2018-04-13T20:49:27.091Z,37.33
2018-04-13T20:51:55.957Z,39.43
2018-04-13T20:54:24.834Z,37.90
2018-04-13T20:56:53.657Z,39.23
2018-04-13T20:59:22.528Z,36.33
2018-04-13T21:01:52.133Z,41.13
2018-04-13T21:04:21.776Z,42.57
2018-04-13T21:06:50.633Z,44.77
2018-04-13T21:09:19.524Z,43.00
2018-04-13T21:11:49.129Z,41.13
2018-04-13T21:14:18.769Z,42.27
2018-04-13T21:16:48.434Z,40.27
2018-04-13T21:19:17.281Z,41.63
2018-04-13T21:21:46.770Z,41.63
2018-04-13T21:24:15.650Z,44.10
2018-04-13T21:26:44.510Z,41.00
2018-04-13T21:29:14.141Z,42.57
2018-04-13T21:31:42.985Z,43.83
2018-04-13T21:34:11.849Z,42.90
2018-04-13T21:36:40.701Z,43.50
2018-04-13T21:39:09.600Z,45.50
2018-04-13T21:41:39.090Z,44.03
2018-04-13T21:44:08.707Z,44.53
2018-04-13T21:46:38.345Z,45.17
2018-04-13T21:49:07.346Z,44.77
2018-04-13T21:51:36.213Z,44.37
2018-04-13T21:54:05.052Z,44.10
2018-04-13T21:56:34.702Z,48.57
2018-04-13T21:59:04.192Z,45.80
2018-04-13T22:01:33.048Z,44.33
2018-04-13T22:04:03.376Z,45.17
2018-04-13T22:06:33.010Z,46.03
2018-04-13T22:09:01.842Z,45.00
2018-04-13T22:11:30.716Z,51.70
2018-04-13T22:14:11.609Z,47.97
2018-04-13T22:16:40.455Z,49.33
2018-04-13T22:19:09.281Z,48.77
2018-04-13T22:21:38.155Z,47.70
2018-04-13T22:24:08.233Z,51.10
2018-04-13T22:26:37.076Z,47.47
2018-04-13T22:29:05.965Z,52.23
2018-04-13T22:31:34.785Z,49.07
2018-04-13T22:34:04.434Z,52.67
2018-04-13T22:36:33.282Z,50.27
2018-04-13T22:39:02.135Z,51.77
2018-04-13T22:41:30.988Z,50.33
2018-04-13T22:43:59.843Z,50.80
2018-04-13T22:46:28.686Z,51.67
2018-04-13T22:48:57.542Z,49.13
2018-04-13T22:51:27.152Z,49.23
2018-04-13T22:53:56.778Z,53.30
2018-04-13T22:56:25.584Z,58.23
2018-04-13T22:58:54.474Z,51.47
2018-04-13T23:01:23.360Z,49.80
2018-04-13T23:03:53.725Z,48.40
2018-04-13T23:06:22.578Z,55.73
2018-04-13T23:08:52.234Z,58.20
2018-04-13T23:11:21.080Z,53.33
2018-04-13T23:13:50.680Z,52.03
2018-04-13T23:16:19.610Z,60.87
2018-04-13T23:18:48.692Z,51.07
2018-04-13T23:21:17.545Z,54.17
2018-04-13T23:23:46.388Z,53.33
2018-04-13T23:26:15.243Z,58.60
2018-04-13T23:28:44.866Z,57.70
2018-04-13T23:31:14.488Z,52.20
2018-04-13T23:33:43.357Z,55.57
2018-04-13T23:36:12.236Z,56.80
2018-04-13T23:38:41.840Z,54.70
2018-04-13T23:41:11.030Z,52.23
2018-04-13T23:43:40.013Z,57.80
2018-04-13T23:46:08.876Z,62.03
2018-04-13T23:48:37.710Z,60.40
2018-04-13T23:51:06.545Z,54.87
2018-04-13T23:53:35.405Z,61.77
2018-04-13T23:56:05.019Z,55.00
2018-04-13T23:58:33.886Z,56.30
